Meteo Giornale » Osservazioni meteo Stati Uniti (USA) » Newport

ore: 10:41 - Osservazioni Meteo Newport
Lat. 44° 56' N Lon. 72° 12' W Alt. 233 metri s.l.m.

sereno America/New_York

10 °C

Sereno

Temp. 24 Ore

0 °C

11 °C

Nord

5.5 Km/h

Dew point -1 °C

Umidità 46 %

Visibilità  10 Km

Il sole sorge alle ore 06:32

Il sole tramonta alle ore 18:51

Data e Ora Cielo e Fenomeni T °C DP °C Um. % Pres. hPa Vis. km Vento km/h
Oggi h: 10:41 sereno Sereno 10 -1 46 1035 10 N 5.5
Oggi h: 10:01 nuvoloso Nuvoloso 8 0 56 1036 10 N/NE 7.4
Oggi h: 09:21 coperto Coperto 6 0 65 1035 10 N 0
Oggi h: 08:41 sereno Sereno 4 0 75 1035 10 N 0
Oggi h: 08:01 sereno Sereno 1 0 93 1034 10 N 5.5
Oggi h: 07:21 nuvoloso Nuvoloso 0 -2 86 1034 10 N 5.5
Oggi h: 06:41 molto_nuvoloso Molto Nuvoloso 0 -2 86 1033 10 SO 7.4
Oggi h: 06:01 molto_nuvoloso Molto Nuvoloso 0 -1 92 1033 10 N 0
Oggi h: 05:21 coperto Coperto 0 -1 92 1032 10 SO 7.4
Oggi h: 04:41 coperto Coperto 0 -1 92 1032 10 N 0
Oggi h: 04:01 nuvoloso Nuvoloso 0 -1 92 1032 10 N 0
Oggi h: 03:21 molto_nuvoloso Molto Nuvoloso 0 -1 92 1032 10 N 0
Oggi h: 02:41 coperto Coperto 0 -1 92 1032 10 N 5.5
Oggi h: 02:01 coperto Coperto 0 -1 92 1031 10 N 5.5
Oggi h: 01:21 molto_nuvoloso Molto Nuvoloso 0 -1 92 1031 10 N 0
Oggi h: 00:41 nuvoloso Nuvoloso 0 -1 92 1031 10 N 5.5
Oggi h: 00:01 nuvoloso Nuvoloso 1 -1 86 1031 10 N 5.5
Ieri h: 22:41 sereno Sereno 0 -1 92 1030 10 SO 9.3
Ieri h: 22:01 sereno Sereno 2 -1 80 1030 10 N 0
Ieri h: 21:21 sereno Sereno 1 -1 86 1030 10 N 0
Ieri h: 20:41 sereno Sereno 2 -2 74 1030 10 N 5.5
Ieri h: 20:01 sereno Sereno 5 -3 56 1029 10 O 7.4
Ieri h: 19:21 sereno Sereno 6 -3 52 1029 10 O/NO 7.4
Ieri h: 18:41 sereno Sereno 8 -4 42 1028 10 N 5.5
Ieri h: 18:01 nuvoloso Nuvoloso 10 -5 34 1028 10 N/NO 14.8
Ieri h: 17:21 nuvoloso Nuvoloso 10 -6 31 1028 10 NO 11.1
Ieri h: 16:41 nuvoloso Nuvoloso 10 -5 34 1028 10 N/NO 11.1
Ieri h: 16:01 nuvoloso Nuvoloso 10 -5 34 1028 10 N/NO 11.1
Ieri h: 15:21 nuvoloso Nuvoloso 11 -4 34 1028 10 N/NO 14.8
Ieri h: 14:41 nuvoloso Nuvoloso 11 -5 32 1028 10 O/NO 11.1
Ieri h: 14:01 molto_nuvoloso Molto Nuvoloso 11 -6 29 1028 10 N/NO 18.5
Ieri h: 13:21 molto_nuvoloso Molto Nuvoloso 11 -6 29 1028 10 O/NO 13
Ieri h: 12:41 coperto Coperto 10 -5 34 1028 10 N/NO 11.1
Ieri h: 12:01 molto_nuvoloso Molto Nuvoloso 9 -3 42 1028 10 N 13